Time,TemperatureF,DewpointF,PressureIn,WindDirection,WindDirectionDegrees,WindSpeedMPH,WindSpeedGustMPH,Humidity,HourlyPrecipIn,Conditions,Clouds,dailyrainin,SoftwareType,DateUTC
2013-01-26 00:08:00,48.3,39.0,30.23,NNE,27,3.0,5.0,70,0.00,,,0.00,weatherlink.com 1.10,2013-01-26 06:08:00,
2013-01-26 00:23:00,48.1,39.0,30.23,NE,54,3.0,3.0,70,0.00,,,0.00,weatherlink.com 1.10,2013-01-26 06:23:00,
2013-01-26 00:39:00,48.0,39.0,30.23,NNE,32,0.0,4.0,71,0.00,,,0.00,weatherlink.com 1.10,2013-01-26 06:39:00,
2013-01-26 00:54:00,48.1,39.0,30.22,NE,44,1.0,5.0,71,0.00,,,0.00,weatherlink.com 1.10,2013-01-26 06:54:00,
2013-01-26 01:09:00,47.9,39.0,30.21,NE,51,3.0,5.0,71,0.00,,,0.00,weatherlink.com 1.10,2013-01-26 07:09:00,
2013-01-26 01:24:00,47.9,39.0,30.22,North,357,2.0,3.0,71,0.00,,,0.00,weatherlink.com 1.10,2013-01-26 07:24:00,
2013-01-26 01:39:00,47.8,39.0,30.22,North,8,4.0,4.0,71,0.00,,,0.00,weatherlink.com 1.10,2013-01-26 07:39:00,
2013-01-26 01:54:00,47.7,39.0,30.22,NNE,21,3.0,5.0,72,0.00,,,0.00,weatherlink.com 1.10,2013-01-26 07:54:00,
2013-01-26 02:09:00,47.5,39.0,30.21,North,350,1.0,5.0,72,0.00,,,0.00,weatherlink.com 1.10,2013-01-26 08:09:00,
2013-01-26 02:24:00,47.5,39.0,30.21,North,358,2.0,4.0,72,0.00,,,0.00,weatherlink.com 1.10,2013-01-26 08:24:00,
2013-01-26 02:39:00,47.5,39.0,30.21,NNE,13,2.0,3.0,72,0.00,,,0.00,weatherlink.com 1.10,2013-01-26 08:39:00,
2013-01-26 02:54:00,47.4,39.0,30.21,North,356,2.0,6.0,72,0.00,,,0.00,weatherlink.com 1.10,2013-01-26 08:54:00,
2013-01-26 03:09:00,47.4,39.0,30.21,North,11,3.0,4.0,73,0.00,,,0.00,weatherlink.com 1.10,2013-01-26 09:09:00,
2013-01-26 03:24:00,47.3,39.0,30.20,NNE,18,4.0,5.0,73,0.00,,,0.00,weatherlink.com 1.10,2013-01-26 09:24:00,
2013-01-26 03:39:00,47.1,39.0,30.20,NNE,28,1.0,4.0,74,0.00,,,0.00,weatherlink.com 1.10,2013-01-26 09:39:00,
2013-01-26 03:54:00,46.9,39.0,30.20,North,8,1.0,2.0,75,0.00,,,0.00,weatherlink.com 1.10,2013-01-26 09:54:00,
2013-01-26 04:09:00,46.8,40.0,30.20,NNE,31,1.0,3.0,76,0.00,,,0.00,weatherlink.com 1.10,2013-01-26 10:09:00,
2013-01-26 04:24:00,46.8,40.0,30.20,North,6,1.0,2.0,76,0.00,,,0.00,weatherlink.com 1.10,2013-01-26 10:24:00,
2013-01-26 04:39:00,46.7,40.0,30.20,NNE,16,0.0,4.0,77,0.00,,,0.00,weatherlink.com 1.10,2013-01-26 10:39:00,
2013-01-26 04:54:00,46.4,41.0,30.19,North,352,2.0,3.0,80,0.00,,,0.00,weatherlink.com 1.10,2013-01-26 10:54:00,
2013-01-26 05:09:00,45.9,41.0,30.20,NNE,20,2.0,5.0,83,0.00,,,0.00,weatherlink.com 1.10,2013-01-26 11:09:00,
2013-01-26 05:24:00,45.5,41.0,30.20,ENE,70,3.0,3.0,85,0.00,,,0.00,weatherlink.com 1.10,2013-01-26 11:24:00,
2013-01-26 05:39:00,45.2,41.0,30.20,NNE,16,2.0,3.0,86,0.00,,,0.00,weatherlink.com 1.10,2013-01-26 11:39:00,
2013-01-26 05:54:00,45.0,41.0,30.19,NE,41,0.0,3.0,87,0.00,,,0.00,weatherlink.com 1.10,2013-01-26 11:54:00,
2013-01-26 06:09:00,44.8,42.0,30.19,North,5,1.0,3.0,88,0.00,,,0.00,weatherlink.com 1.10,2013-01-26 12:09:00,
2013-01-26 06:24:00,44.7,42.0,30.20,North,359,1.0,4.0,89,0.00,,,0.00,weatherlink.com 1.10,2013-01-26 12:24:00,
2013-01-26 06:39:00,44.6,42.0,30.21,North,349,2.0,4.0,90,0.00,,,0.00,weatherlink.com 1.10,2013-01-26 12:39:00,
2013-01-26 06:54:00,44.5,42.0,30.22,North,352,3.0,4.0,91,0.00,,,0.00,weatherlink.com 1.10,2013-01-26 12:54:00,
2013-01-26 07:09:00,44.5,42.0,30.22,NNE,19,2.0,4.0,91,0.00,,,0.00,weatherlink.com 1.10,2013-01-26 13:09:00,
2013-01-26 07:24:00,44.7,42.0,30.22,NE,51,3.0,4.0,91,0.00,,,0.00,weatherlink.com 1.10,2013-01-26 13:24:00,
2013-01-26 07:39:00,44.8,42.0,30.22,NNE,18,4.0,4.0,91,0.00,,,0.00,weatherlink.com 1.10,2013-01-26 13:39:00,
2013-01-26 07:54:00,44.7,43.0,30.23,North,356,2.0,4.0,92,0.00,,,0.00,weatherlink.com 1.10,2013-01-26 13:54:00,
2013-01-26 08:09:00,44.8,43.0,30.22,North,360,1.0,3.0,92,0.00,,,0.00,weatherlink.com 1.10,2013-01-26 14:09:00,
2013-01-26 08:24:00,45.1,43.0,30.23,NNW,335,1.0,2.0,92,0.00,,,0.00,weatherlink.com 1.10,2013-01-26 14:24:00,
2013-01-26 08:39:00,45.2,43.0,30.23,NW,326,1.0,3.0,92,0.00,,,0.00,weatherlink.com 1.10,2013-01-26 14:39:00,
2013-01-26 08:54:00,45.5,43.0,30.24,NNW,340,2.0,3.0,92,0.00,,,0.00,weatherlink.com 1.10,2013-01-26 14:54:00,
2013-01-26 09:09:00,45.8,44.0,30.24,North,349,0.0,2.0,93,0.00,,,0.00,weatherlink.com 1.10,2013-01-26 15:09:00,
2013-01-26 09:24:00,46.0,44.0,30.25,NNW,344,1.0,2.0,93,0.00,,,0.00,weatherlink.com 1.10,2013-01-26 15:24:00,
2013-01-26 09:39:00,46.2,44.0,30.24,ENE,70,0.0,2.0,93,0.00,,,0.00,weatherlink.com 1.10,2013-01-26 15:39:00,
2013-01-26 09:54:00,46.6,45.0,30.25,NE,40,0.0,2.0,93,0.00,,,0.00,weatherlink.com 1.10,2013-01-26 15:54:00,
2013-01-26 10:09:00,47.0,45.0,30.25,ENE,60,2.0,4.0,92,0.00,,,0.00,weatherlink.com 1.10,2013-01-26 16:09:00,
2013-01-26 10:24:00,47.3,45.0,30.26,ENE,57,1.0,3.0,92,0.00,,,0.00,weatherlink.com 1.10,2013-01-26 16:24:00,
2013-01-26 10:39:00,47.4,45.0,30.26,NNE,30,1.0,3.0,92,0.00,,,0.00,weatherlink.com 1.10,2013-01-26 16:39:00,
2013-01-26 10:54:00,47.9,46.0,30.26,East,88,2.0,3.0,92,0.00,,,0.00,weatherlink.com 1.10,2013-01-26 16:54:00,
2013-01-26 11:10:00,48.1,46.0,30.26,ENE,66,2.0,3.0,91,0.00,,,0.00,weatherlink.com 1.10,2013-01-26 17:10:00,
2013-01-26 11:25:00,48.5,46.0,30.25,NNE,32,2.0,4.0,91,0.00,,,0.00,weatherlink.com 1.10,2013-01-26 17:25:00,
2013-01-26 11:40:00,48.9,46.0,30.25,ENE,73,2.0,3.0,90,0.00,,,0.00,weatherlink.com 1.10,2013-01-26 17:40:00,
2013-01-26 11:55:00,49.5,46.0,30.24,NE,52,3.0,4.0,89,0.00,,,0.00,weatherlink.com 1.10,2013-01-26 17:55:00,
2013-01-26 12:10:00,49.9,47.0,30.23,ENE,77,5.0,5.0,88,0.00,,,0.00,weatherlink.com 1.10,2013-01-26 18:10:00,
2013-01-26 12:25:00,50.1,47.0,30.23,ENE,60,2.0,5.0,88,0.00,,,0.00,weatherlink.com 1.10,2013-01-26 18:25:00,
2013-01-26 12:40:00,50.4,47.0,30.22,ENE,75,3.0,5.0,88,0.00,,,0.00,weatherlink.com 1.10,2013-01-26 18:40:00,
2013-01-26 12:55:00,50.4,47.0,30.21,ENE,63,3.0,5.0,88,0.00,,,0.00,weatherlink.com 1.10,2013-01-26 18:55:00,
2013-01-26 13:10:00,50.9,48.0,30.20,ENE,69,2.0,4.0,88,0.00,,,0.00,weatherlink.com 1.10,2013-01-26 19:10:00,
2013-01-26 13:25:00,51.4,47.0,30.19,ENE,68,2.0,4.0,86,0.00,,,0.00,weatherlink.com 1.10,2013-01-26 19:25:00,
2013-01-26 13:40:00,51.6,48.0,30.18,East,101,2.0,4.0,86,0.00,,,0.00,weatherlink.com 1.10,2013-01-26 19:40:00,
2013-01-26 13:55:00,51.8,48.0,30.17,East,91,5.0,5.0,86,0.00,,,0.00,weatherlink.com 1.10,2013-01-26 19:55:00,
2013-01-26 14:10:00,51.6,48.0,30.17,East,79,2.0,5.0,87,0.00,,,0.00,weatherlink.com 1.10,2013-01-26 20:10:00,
2013-01-26 14:25:00,51.7,48.0,30.16,ENE,73,2.0,4.0,87,0.00,,,0.00,weatherlink.com 1.10,2013-01-26 20:25:00,
2013-01-26 14:40:00,51.8,48.0,30.16,East,91,3.0,5.0,87,0.00,,,0.00,weatherlink.com 1.10,2013-01-26 20:40:00,
2013-01-26 14:55:00,52.1,48.0,30.16,ENE,74,3.0,5.0,86,0.00,,,0.00,weatherlink.com 1.10,2013-01-26 20:55:00,
2013-01-26 15:10:00,52.3,48.0,30.16,ESE,104,4.0,5.0,86,0.00,,,0.00,weatherlink.com 1.10,2013-01-26 21:10:00,
2013-01-26 15:25:00,52.7,49.0,30.16,ENE,76,4.0,7.0,86,0.00,,,0.00,weatherlink.com 1.10,2013-01-26 21:25:00,
2013-01-26 15:40:00,52.7,48.0,30.16,ENE,76,5.0,6.0,85,0.00,,,0.00,weatherlink.com 1.10,2013-01-26 21:40:00,
2013-01-26 15:55:00,52.8,48.0,30.16,East,101,4.0,5.0,85,0.00,,,0.00,weatherlink.com 1.10,2013-01-26 21:55:00,
2013-01-26 16:10:00,52.6,49.0,30.16,ENE,77,3.0,6.0,86,0.00,,,0.00,weatherlink.com 1.10,2013-01-26 22:10:00,
2013-01-26 16:25:00,52.4,48.0,30.16,East,86,4.0,6.0,86,0.00,,,0.00,weatherlink.com 1.10,2013-01-26 22:25:00,
2013-01-26 16:40:00,52.3,48.0,30.16,ENE,77,4.0,6.0,86,0.00,,,0.00,weatherlink.com 1.10,2013-01-26 22:40:00,
2013-01-26 16:55:00,52.4,49.0,30.16,East,93,3.0,5.0,87,0.00,,,0.00,weatherlink.com 1.10,2013-01-26 22:55:00,
2013-01-26 17:10:00,52.4,49.0,30.16,East,98,4.0,6.0,87,0.00,,,0.00,weatherlink.com 1.10,2013-01-26 23:10:00,
2013-01-26 17:25:00,52.0,49.0,30.16,East,91,3.0,6.0,88,0.00,,,0.00,weatherlink.com 1.10,2013-01-26 23:25:00,
2013-01-26 17:40:00,51.7,49.0,30.16,East,85,2.0,6.0,89,0.00,,,0.00,weatherlink.com 1.10,2013-01-26 23:40:00,
2013-01-26 17:55:00,51.6,49.0,30.16,ESE,105,4.0,5.0,90,0.00,,,0.00,weatherlink.com 1.10,2013-01-26 23:55:00,
2013-01-26 18:10:00,51.5,49.0,30.15,East,79,3.0,5.0,90,0.00,,,0.00,weatherlink.com 1.10,2013-01-27 00:10:00,
2013-01-26 18:25:00,51.3,49.0,30.15,East,86,5.0,8.0,91,0.00,,,0.00,weatherlink.com 1.10,2013-01-27 00:25:00,
2013-01-26 18:40:00,51.2,49.0,30.16,ESE,109,5.0,6.0,91,0.00,,,0.00,weatherlink.com 1.10,2013-01-27 00:40:00,
2013-01-26 18:55:00,51.1,49.0,30.15,SE,124,4.0,6.0,91,0.00,,,0.00,weatherlink.com 1.10,2013-01-27 00:55:00,
2013-01-26 19:10:00,51.2,49.0,30.16,East,79,2.0,4.0,92,0.00,,,0.00,weatherlink.com 1.10,2013-01-27 01:10:00,
2013-01-26 19:25:00,51.1,49.0,30.16,East,96,2.0,4.0,92,0.00,,,0.00,weatherlink.com 1.10,2013-01-27 01:25:00,
2013-01-26 19:40:00,51.1,49.0,30.16,ENE,65,1.0,4.0,93,0.00,,,0.00,weatherlink.com 1.10,2013-01-27 01:40:00,
2013-01-26 19:55:00,51.0,49.0,30.16,East,86,3.0,5.0,94,0.00,,,0.00,weatherlink.com 1.10,2013-01-27 01:55:00,
2013-01-26 20:10:00,50.8,49.0,30.16,East,96,2.0,6.0,94,0.00,,,0.00,weatherlink.com 1.10,2013-01-27 02:10:00,
2013-01-26 20:25:00,50.9,49.0,30.16,ENE,72,4.0,4.0,93,0.00,,,0.00,weatherlink.com 1.10,2013-01-27 02:25:00,
2013-01-26 20:40:00,50.9,49.0,30.15,ESE,104,4.0,6.0,93,0.00,,,0.00,weatherlink.com 1.10,2013-01-27 02:40:00,
2013-01-26 20:55:00,50.8,49.0,30.15,ENE,77,3.0,5.0,93,0.00,,,0.00,weatherlink.com 1.10,2013-01-27 02:55:00,
2013-01-26 21:10:00,50.7,49.0,30.14,ESE,106,5.0,7.0,93,0.00,,,0.00,weatherlink.com 1.10,2013-01-27 03:10:00,
2013-01-26 21:25:00,50.5,49.0,30.14,East,89,4.0,7.0,94,0.00,,,0.00,weatherlink.com 1.10,2013-01-27 03:25:00,
2013-01-26 21:41:00,50.3,49.0,30.14,East,87,3.0,7.0,95,0.00,,,0.00,weatherlink.com 1.10,2013-01-27 03:41:00,
2013-01-26 21:56:00,50.1,49.0,30.14,ENE,78,3.0,5.0,95,0.00,,,0.00,weatherlink.com 1.10,2013-01-27 03:56:00,
2013-01-26 22:11:00,50.1,49.0,30.14,East,99,4.0,6.0,96,0.00,,,0.00,weatherlink.com 1.10,2013-01-27 04:11:00,
2013-01-26 22:26:00,50.1,49.0,30.14,ESE,117,5.0,9.0,96,0.00,,,0.00,weatherlink.com 1.10,2013-01-27 04:26:00,
2013-01-26 22:41:00,50.1,49.0,30.13,ESE,117,6.0,6.0,96,0.00,,,0.00,weatherlink.com 1.10,2013-01-27 04:41:00,
2013-01-26 22:56:00,50.0,49.0,30.13,East,91,3.0,7.0,96,0.00,,,0.00,weatherlink.com 1.10,2013-01-27 04:56:00,
2013-01-26 23:26:00,49.9,49.0,30.14,ESE,104,6.0,7.0,96,0.00,,,0.00,weatherlink.com 1.10,2013-01-27 05:26:00,
2013-01-26 23:41:00,49.9,49.0,30.13,ESE,116,3.0,6.0,97,0.00,,,0.00,weatherlink.com 1.10,2013-01-27 05:41:00,
2013-01-26 23:56:00,49.9,49.0,30.13,ESE,110,4.0,7.0,97,0.00,,,0.00,weatherlink.com 1.10,2013-01-27 05:56:00,